createdAt,value
2023-05-22T00:00:05.181Z,998.7
2023-05-22T00:01:21.477Z,998.8
2023-05-22T00:02:37.759Z,998.8
2023-05-22T00:03:54.055Z,998.7
2023-05-22T00:05:10.352Z,998.8
2023-05-22T00:06:26.646Z,998.8
2023-05-22T00:07:41.946Z,998.8
2023-05-22T00:08:58.245Z,998.7
2023-05-22T00:10:14.537Z,998.7
2023-05-22T00:12:47.127Z,998.7
2023-05-22T00:14:03.421Z,998.7
2023-05-22T00:15:19.709Z,998.7
2023-05-22T00:16:36.008Z,998.7
2023-05-22T00:17:52.317Z,998.7
2023-05-22T00:19:07.619Z,998.7
2023-05-22T00:20:22.934Z,998.7
2023-05-22T00:21:39.233Z,998.6
2023-05-22T00:22:55.519Z,998.7
2023-05-22T00:24:11.815Z,998.6
2023-05-22T00:25:28.110Z,998.7
2023-05-22T00:26:44.413Z,998.7
2023-05-22T00:28:00.706Z,998.7
2023-05-22T00:29:16.980Z,998.7
2023-05-22T00:30:33.293Z,998.7
2023-05-22T00:31:48.602Z,998.7
2023-05-22T00:33:03.918Z,998.7
2023-05-22T00:35:36.500Z,998.6
2023-05-22T00:36:52.784Z,998.7
2023-05-22T00:38:09.078Z,998.7
2023-05-22T00:39:25.375Z,998.7
2023-05-22T00:40:41.664Z,998.7
2023-05-22T00:41:57.967Z,998.7
2023-05-22T00:43:14.263Z,998.7
2023-05-22T00:44:30.560Z,998.6
2023-05-22T00:45:46.849Z,998.7
2023-05-22T00:47:03.132Z,998.6
2023-05-22T00:48:19.432Z,998.6
2023-05-22T00:49:34.737Z,998.6
2023-05-22T00:50:51.031Z,998.6
2023-05-22T00:52:07.331Z,998.6
2023-05-22T00:53:23.619Z,998.6
2023-05-22T00:54:39.929Z,998.6
2023-05-22T00:55:56.211Z,998.6
2023-05-22T00:58:28.810Z,998.6
2023-05-22T00:59:45.095Z,998.5
2023-05-22T01:01:01.398Z,998.5
2023-05-22T01:02:17.681Z,998.5
2023-05-22T01:03:33.975Z,998.5
2023-05-22T01:06:06.563Z,998.5
2023-05-22T01:07:21.874Z,998.5
2023-05-22T01:08:38.165Z,998.5
2023-05-22T01:09:54.472Z,998.4
2023-05-22T01:11:10.765Z,998.5
2023-05-22T01:13:43.340Z,998.5
2023-05-22T01:14:58.655Z,998.6
2023-05-22T01:16:13.980Z,998.5
2023-05-22T01:17:30.271Z,998.5
2023-05-22T01:18:46.564Z,998.6
2023-05-22T01:20:02.843Z,998.5
2023-05-22T01:21:19.151Z,998.6
2023-05-22T01:22:35.435Z,998.6
2023-05-22T01:23:51.743Z,998.6
2023-05-22T01:25:08.031Z,998.5
2023-05-22T01:26:24.326Z,998.5
2023-05-22T01:27:39.644Z,998.6
2023-05-22T01:28:54.951Z,998.5
2023-05-22T01:30:11.242Z,998.5
2023-05-22T01:31:27.536Z,998.5
2023-05-22T01:32:43.826Z,998.5
2023-05-22T01:34:00.123Z,998.6
2023-05-22T01:35:16.409Z,998.5
2023-05-22T01:36:32.706Z,998.5
2023-05-22T01:37:49.000Z,998.6
2023-05-22T01:39:05.307Z,998.6
2023-05-22T01:40:21.599Z,998.6
2023-05-22T01:41:37.882Z,998.6
2023-05-22T01:44:10.467Z,998.5
2023-05-22T01:45:25.777Z,998.5
2023-05-22T01:46:42.087Z,998.6
2023-05-22T01:47:58.366Z,998.6
2023-05-22T01:49:14.655Z,998.6
2023-05-22T01:50:30.956Z,998.6
2023-05-22T01:51:47.257Z,998.6
2023-05-22T01:53:03.544Z,998.7
2023-05-22T01:54:19.837Z,998.7
2023-05-22T01:55:36.133Z,998.6
2023-05-22T01:56:52.423Z,998.7
2023-05-22T01:58:08.713Z,998.7
2023-05-22T01:59:25.020Z,998.6
2023-05-22T02:00:41.305Z,998.6
2023-05-22T02:01:56.627Z,998.6
2023-05-22T02:03:12.922Z,998.6
2023-05-22T02:04:29.199Z,998.6
2023-05-22T02:05:45.502Z,998.7
2023-05-22T02:07:01.794Z,998.6
2023-05-22T02:08:18.094Z,998.7
2023-05-22T02:09:34.386Z,998.6
2023-05-22T02:10:50.673Z,998.6
2023-05-22T02:12:06.981Z,998.6
2023-05-22T02:13:23.272Z,998.6
2023-05-22T02:14:39.563Z,998.6
2023-05-22T02:15:55.850Z,998.6
2023-05-22T02:17:12.149Z,998.6
2023-05-22T02:18:27.464Z,998.6
2023-05-22T02:19:43.758Z,998.6
2023-05-22T02:21:00.042Z,998.6
2023-05-22T02:22:16.329Z,998.6
2023-05-22T02:23:32.636Z,998.6
2023-05-22T02:24:48.933Z,998.6
2023-05-22T02:26:05.162Z,998.6
2023-05-22T02:27:20.489Z,998.6
2023-05-22T02:28:36.724Z,998.5
2023-05-22T02:29:52.973Z,998.5
2023-05-22T02:31:09.205Z,998.5
2023-05-22T02:32:25.443Z,998.5
2023-05-22T02:33:41.702Z,998.5
2023-05-22T02:34:57.944Z,998.5
2023-05-22T02:36:14.179Z,998.5
2023-05-22T02:37:30.414Z,998.5
2023-05-22T02:38:46.669Z,998.5
2023-05-22T02:40:02.900Z,998.4
2023-05-22T02:41:19.145Z,998.5
2023-05-22T02:42:35.379Z,998.4
2023-05-22T02:43:50.644Z,998.4
2023-05-22T02:46:23.127Z,998.4
2023-05-22T02:47:39.353Z,998.4
2023-05-22T02:48:55.596Z,998.5
2023-05-22T02:50:11.841Z,998.5
2023-05-22T02:51:28.084Z,998.4
2023-05-22T02:52:44.307Z,998.4
2023-05-22T02:54:00.550Z,998.4
2023-05-22T02:55:16.806Z,998.4
2023-05-22T02:56:33.038Z,998.4
2023-05-22T02:57:49.284Z,998.4
2023-05-22T02:59:05.508Z,998.4
2023-05-22T03:00:20.769Z,998.4
2023-05-22T03:01:37.018Z,998.4
2023-05-22T03:02:53.242Z,998.4
2023-05-22T03:04:09.488Z,998.4
2023-05-22T03:05:25.725Z,998.4
2023-05-22T03:06:41.980Z,998.4
2023-05-22T03:07:58.221Z,998.3
2023-05-22T03:09:14.442Z,998.3
2023-05-22T03:10:30.701Z,998.4
2023-05-22T03:11:46.940Z,998.3
2023-05-22T03:13:03.169Z,998.3
2023-05-22T03:14:19.421Z,998.4
2023-05-22T03:15:35.658Z,998.3
2023-05-22T03:16:50.905Z,998.3
2023-05-22T03:18:07.144Z,998.3
2023-05-22T03:19:23.380Z,998.3
2023-05-22T03:20:39.634Z,998.3
2023-05-22T03:21:55.859Z,998.3
2023-05-22T03:23:12.115Z,998.3
2023-05-22T03:25:44.583Z,998.2
2023-05-22T03:27:00.825Z,998.3
2023-05-22T03:28:17.058Z,998.2
2023-05-22T03:29:33.311Z,998.2
2023-05-22T03:30:49.551Z,998.3
2023-05-22T03:33:22.020Z,998.3
2023-05-22T03:34:37.279Z,998.3
2023-05-22T03:35:53.526Z,998.3
2023-05-22T03:37:09.759Z,998.3
2023-05-22T03:38:26.005Z,998.3
2023-05-22T03:40:58.492Z,998.3
2023-05-22T03:42:13.748Z,998.4
2023-05-22T03:43:29.002Z,998.4
2023-05-22T03:44:45.228Z,998.3
2023-05-22T03:46:01.470Z,998.3
2023-05-22T03:47:17.730Z,998.3
2023-05-22T03:48:33.955Z,998.3
2023-05-22T03:49:50.204Z,998.3
2023-05-22T03:51:06.431Z,998.3
2023-05-22T03:52:22.681Z,998.3
2023-05-22T03:53:38.921Z,998.3
2023-05-22T03:54:54.187Z,998.2
2023-05-22T03:56:09.441Z,998.3
2023-05-22T03:57:25.681Z,998.2
2023-05-22T03:58:41.915Z,998.2
2023-05-22T03:59:58.163Z,998.2
2023-05-22T04:01:14.387Z,998.2
2023-05-22T04:02:30.631Z,998.3
2023-05-22T04:03:46.868Z,998.2
2023-05-22T04:05:03.122Z,998.1
2023-05-22T04:06:19.357Z,998.2
2023-05-22T04:07:35.599Z,998.2
2023-05-22T04:08:51.843Z,998.2
2023-05-22T04:10:08.076Z,998.2
2023-05-22T04:11:24.318Z,998.2
2023-05-22T04:12:39.569Z,998.2
2023-05-22T04:13:55.814Z,998.2
2023-05-22T04:15:12.058Z,998.2
2023-05-22T04:16:28.298Z,998.2
2023-05-22T04:17:44.531Z,998.2
2023-05-22T04:19:00.775Z,998.3
2023-05-22T04:20:17.014Z,998.3
2023-05-22T04:21:33.252Z,998.2
2023-05-22T04:24:05.720Z,998.2
2023-05-22T04:25:21.962Z,998.3
2023-05-22T04:26:38.210Z,998.3
2023-05-22T04:27:54.444Z,998.3
2023-05-22T04:29:09.703Z,998.2
2023-05-22T04:30:25.950Z,998.3
2023-05-22T04:31:42.189Z,998.3
2023-05-22T04:32:58.423Z,998.3
2023-05-22T04:34:14.664Z,998.3
2023-05-22T04:35:30.909Z,998.3
2023-05-22T04:36:47.142Z,998.3
2023-05-22T04:39:19.621Z,998.2
2023-05-22T04:40:35.867Z,998.2
2023-05-22T04:41:52.094Z,998.3
2023-05-22T04:43:08.336Z,998.2
2023-05-22T04:44:24.572Z,998.3
2023-05-22T04:45:39.833Z,998.3
2023-05-22T04:46:56.072Z,998.3
2023-05-22T04:48:12.327Z,998.3
2023-05-22T04:49:28.562Z,998.3
2023-05-22T04:50:44.805Z,998.3
2023-05-22T04:52:01.039Z,998.2
2023-05-22T04:54:33.524Z,998.3
2023-05-22T04:55:49.749Z,998.3
2023-05-22T04:57:05.994Z,998.3
2023-05-22T04:58:22.242Z,998.3
2023-05-22T04:59:38.483Z,998.3
2023-05-22T05:00:54.710Z,998.3
2023-05-22T05:02:10.963Z,998.3
2023-05-22T05:03:26.214Z,998.3
2023-05-22T05:04:42.453Z,998.2
2023-05-22T05:05:58.687Z,998.3
2023-05-22T05:07:14.932Z,998.3
2023-05-22T05:09:47.417Z,998.2
2023-05-22T05:11:03.650Z,998.2
2023-05-22T05:12:19.897Z,998.2
2023-05-22T05:13:36.134Z,998.1
2023-05-22T05:14:52.361Z,998.2
2023-05-22T05:16:08.616Z,998.2
2023-05-22T05:17:24.847Z,998.2
2023-05-22T05:18:41.084Z,998.2
2023-05-22T05:19:56.343Z,998.3
2023-05-22T05:21:12.583Z,998.2
2023-05-22T05:22:28.835Z,998.1
2023-05-22T05:25:01.317Z,998.2
2023-05-22T05:26:17.541Z,998.2
2023-05-22T05:27:33.793Z,998.2
2023-05-22T05:28:50.028Z,998.2
2023-05-22T05:30:06.256Z,998.2
2023-05-22T05:31:22.501Z,998.1
2023-05-22T05:32:38.754Z,998.2
2023-05-22T05:33:54.977Z,998.1
2023-05-22T05:35:11.230Z,998.1
2023-05-22T05:36:26.480Z,998.2
2023-05-22T05:37:42.729Z,998.2
2023-05-22T05:38:58.965Z,998.2
2023-05-22T05:40:15.210Z,998.2
2023-05-22T05:41:31.450Z,998.2
2023-05-22T05:42:47.686Z,998.2
2023-05-22T05:44:03.917Z,998.2
2023-05-22T05:45:20.160Z,998.2
2023-05-22T05:46:36.398Z,998.2
2023-05-22T05:47:52.644Z,998.2
2023-05-22T05:49:08.874Z,998.2
2023-05-22T05:50:25.117Z,998.3
2023-05-22T05:51:41.359Z,998.2
2023-05-22T05:52:56.606Z,998.2
2023-05-22T05:54:12.845Z,998.2
2023-05-22T05:55:29.088Z,998.1
2023-05-22T05:56:45.330Z,998.2
2023-05-22T05:58:01.569Z,998.2
2023-05-22T05:59:17.809Z,998.2
2023-05-22T06:00:34.061Z,998.1
2023-05-22T06:01:50.298Z,998.1
2023-05-22T06:03:06.539Z,998.1
2023-05-22T06:04:22.782Z,998.1
2023-05-22T06:05:39.006Z,998.1
2023-05-22T06:06:55.248Z,998.2
2023-05-22T06:08:11.495Z,998.1
2023-05-22T06:10:42.996Z,998.1
2023-05-22T06:11:59.238Z,998.1
2023-05-22T06:13:15.464Z,998.2
2023-05-22T06:14:31.711Z,998.1
2023-05-22T06:15:47.956Z,998.1
2023-05-22T06:18:20.431Z,998.1
2023-05-22T06:19:36.675Z,998.2
2023-05-22T06:20:52.911Z,998.2
2023-05-22T06:22:09.156Z,998.1
2023-05-22T06:23:25.381Z,998.1
2023-05-22T06:24:41.635Z,998.1
2023-05-22T06:25:57.868Z,998.1
2023-05-22T06:27:13.119Z,998.1
2023-05-22T06:28:29.361Z,998
2023-05-22T06:29:45.614Z,998.1
2023-05-22T06:31:01.851Z,998.1
2023-05-22T06:32:18.079Z,998
2023-05-22T06:33:34.319Z,998
2023-05-22T06:34:50.574Z,998
2023-05-22T06:36:06.799Z,998
2023-05-22T06:37:23.051Z,998.1
2023-05-22T06:38:39.281Z,998
2023-05-22T06:41:11.759Z,998.1
2023-05-22T06:42:27.024Z,998
2023-05-22T06:43:43.269Z,998.1
2023-05-22T06:44:59.495Z,998
2023-05-22T06:46:15.750Z,998
2023-05-22T06:48:48.235Z,998
2023-05-22T06:50:04.458Z,998
2023-05-22T06:51:20.694Z,998
2023-05-22T06:52:36.938Z,998
2023-05-22T06:53:53.189Z,998
2023-05-22T06:55:09.426Z,998
2023-05-22T06:56:25.663Z,998
2023-05-22T06:57:41.900Z,998
2023-05-22T06:58:57.168Z,998
2023-05-22T07:00:13.406Z,998
2023-05-22T07:01:29.641Z,998
2023-05-22T07:02:45.878Z,998
2023-05-22T07:04:02.110Z,998
2023-05-22T07:05:18.350Z,998
2023-05-22T07:06:34.604Z,998
2023-05-22T07:07:50.833Z,998
2023-05-22T07:09:07.071Z,998.1
2023-05-22T07:10:23.323Z,998.1
2023-05-22T07:11:39.552Z,998.1
2023-05-22T07:12:55.800Z,998.1
2023-05-22T07:14:12.031Z,998
2023-05-22T07:15:27.300Z,998
2023-05-22T07:16:43.538Z,998
2023-05-22T07:17:59.778Z,998
2023-05-22T07:19:16.005Z,998
2023-05-22T07:20:32.249Z,998
2023-05-22T07:21:48.495Z,998
2023-05-22T07:23:04.740Z,998.1
2023-05-22T07:24:20.967Z,998
2023-05-22T07:25:37.219Z,998
2023-05-22T07:26:53.442Z,998
2023-05-22T07:28:09.694Z,998.1
2023-05-22T07:29:25.930Z,998
2023-05-22T07:30:42.172Z,997.9
2023-05-22T07:31:57.424Z,997.9
2023-05-22T07:34:29.900Z,998
2023-05-22T07:35:46.140Z,998
2023-05-22T07:37:02.391Z,998
2023-05-22T07:38:18.625Z,997.9
2023-05-22T07:39:34.862Z,997.9
2023-05-22T07:40:51.104Z,997.9
2023-05-22T07:42:07.356Z,997.9
2023-05-22T07:43:23.594Z,998
2023-05-22T07:44:39.820Z,997.9
2023-05-22T07:45:56.056Z,998
2023-05-22T07:47:12.311Z,997.9
2023-05-22T07:48:27.551Z,998
2023-05-22T07:49:43.798Z,998
2023-05-22T07:51:00.033Z,998.1
2023-05-22T07:52:16.274Z,998
2023-05-22T07:53:32.514Z,998
2023-05-22T07:54:48.761Z,998
2023-05-22T07:56:05.008Z,998
2023-05-22T07:57:21.249Z,998
2023-05-22T07:58:37.488Z,998
2023-05-22T07:59:53.714Z,998
2023-05-22T08:01:09.955Z,998
2023-05-22T08:02:26.194Z,998
2023-05-22T08:03:42.443Z,998
2023-05-22T08:04:58.685Z,998
2023-05-22T08:06:13.929Z,998
2023-05-22T08:07:30.168Z,997.9
2023-05-22T08:08:46.406Z,998
2023-05-22T08:10:02.646Z,998
2023-05-22T08:11:18.884Z,998
2023-05-22T08:12:35.145Z,998
2023-05-22T08:13:51.370Z,998
2023-05-22T08:15:07.605Z,997.9
2023-05-22T08:16:23.864Z,998
2023-05-22T08:17:40.099Z,998
2023-05-22T08:18:56.333Z,998
2023-05-22T08:20:12.572Z,998
2023-05-22T08:21:28.809Z,998
2023-05-22T08:22:44.067Z,997.9
2023-05-22T08:24:00.312Z,998
2023-05-22T08:25:16.542Z,997.9
2023-05-22T08:27:49.030Z,997.9
2023-05-22T08:29:05.276Z,998
2023-05-22T08:30:21.504Z,997.9
2023-05-22T08:31:37.754Z,997.9
2023-05-22T08:32:53.994Z,997.8
2023-05-22T08:34:10.237Z,997.8
2023-05-22T08:35:26.470Z,997.9
2023-05-22T08:36:42.706Z,997.9
2023-05-22T08:37:58.950Z,997.9
2023-05-22T08:39:14.214Z,997.9
2023-05-22T08:40:30.448Z,997.9
2023-05-22T08:43:02.924Z,997.9
2023-05-22T08:44:19.157Z,997.9
2023-05-22T08:45:35.412Z,997.9
2023-05-22T08:46:51.647Z,997.9
2023-05-22T08:48:07.877Z,997.8
2023-05-22T08:50:40.364Z,997.8
2023-05-22T08:51:55.618Z,997.8
2023-05-22T08:53:11.860Z,997.8
2023-05-22T08:54:27.122Z,997.8
2023-05-22T08:55:43.351Z,997.7
2023-05-22T08:56:59.608Z,997.8
2023-05-22T08:58:15.836Z,997.7
2023-05-22T08:59:32.079Z,997.7
2023-05-22T09:00:48.310Z,997.8
2023-05-22T09:02:04.560Z,997.7
2023-05-22T09:03:20.791Z,997.7
2023-05-22T09:04:36.065Z,997.7
2023-05-22T09:05:51.312Z,997.8
2023-05-22T09:07:07.561Z,997.7
2023-05-22T09:08:23.792Z,997.6
2023-05-22T09:09:40.032Z,997.6
2023-05-22T09:10:56.279Z,997.6
2023-05-22T09:12:12.516Z,997.7
2023-05-22T09:13:28.751Z,997.7
2023-05-22T09:14:44.997Z,997.7
2023-05-22T09:16:01.224Z,997.6
2023-05-22T09:17:17.484Z,997.7
2023-05-22T09:18:33.723Z,997.5
2023-05-22T09:19:49.950Z,997.6
2023-05-22T09:21:06.193Z,997.6
2023-05-22T09:22:21.456Z,997.6
2023-05-22T09:23:37.698Z,997.6
2023-05-22T09:24:53.933Z,997.5
2023-05-22T09:26:10.173Z,997.5
2023-05-22T09:27:26.420Z,997.5
2023-05-22T09:28:42.651Z,997.5
2023-05-22T09:29:58.884Z,997.4
2023-05-22T09:31:15.136Z,997.5
2023-05-22T09:32:31.371Z,997.5
2023-05-22T09:35:03.842Z,997.4
2023-05-22T09:36:20.085Z,997.4
2023-05-22T09:37:36.322Z,997.4
2023-05-22T09:38:51.578Z,997.5
2023-05-22T09:40:07.831Z,997.5
2023-05-22T09:41:24.068Z,997.5
2023-05-22T09:42:40.298Z,997.5
2023-05-22T09:43:56.541Z,997.5
2023-05-22T09:45:12.784Z,997.4
2023-05-22T09:46:29.034Z,997.3
2023-05-22T09:47:45.269Z,997.4
2023-05-22T09:49:01.516Z,997.4
2023-05-22T09:50:17.738Z,997.4
2023-05-22T09:51:33.988Z,997.3
2023-05-22T09:52:50.231Z,997.3
2023-05-22T09:54:06.476Z,997.2
2023-05-22T09:55:21.729Z,997.3
2023-05-22T09:56:37.956Z,997.2
2023-05-22T09:57:54.203Z,997.2
2023-05-22T09:59:10.440Z,997.3
2023-05-22T10:00:26.676Z,997.3
2023-05-22T10:01:42.916Z,997.3
2023-05-22T10:02:59.153Z,997.3
2023-05-22T10:04:15.412Z,997.2
2023-05-22T10:06:47.893Z,997.3
2023-05-22T10:08:04.124Z,997.2
2023-05-22T10:09:20.363Z,997.2
2023-05-22T10:10:36.604Z,997.2
2023-05-22T10:11:51.867Z,997.2
2023-05-22T10:13:08.108Z,997.2
2023-05-22T10:14:24.343Z,997.2
2023-05-22T10:15:40.577Z,997.2
2023-05-22T10:16:56.816Z,997.2
2023-05-22T10:18:13.065Z,997.2
2023-05-22T10:19:29.299Z,997.1
2023-05-22T10:22:01.782Z,997.2
2023-05-22T10:23:18.019Z,997.1
2023-05-22T10:24:34.257Z,997.1
2023-05-22T10:25:50.491Z,997.1
2023-05-22T10:27:06.737Z,997.2
2023-05-22T10:28:21.998Z,997.1
2023-05-22T10:29:38.228Z,997.1
2023-05-22T10:30:54.479Z,996.9
2023-05-22T10:32:10.721Z,997
2023-05-22T10:33:26.961Z,997.1
2023-05-22T10:34:43.185Z,997.1
2023-05-22T10:35:59.440Z,997.1
2023-05-22T10:37:15.668Z,997
2023-05-22T10:38:31.909Z,996.9
2023-05-22T10:39:48.143Z,997
2023-05-22T10:41:04.385Z,997.1
2023-05-22T10:42:20.643Z,997.1
2023-05-22T10:43:36.867Z,997
2023-05-22T10:44:52.134Z,997
2023-05-22T10:46:08.363Z,996.9
2023-05-22T10:47:24.609Z,997
2023-05-22T10:48:40.855Z,996.9
2023-05-22T10:49:57.090Z,996.9
2023-05-22T10:52:29.571Z,996.9
2023-05-22T10:53:45.812Z,996.9
2023-05-22T10:55:02.040Z,996.9
2023-05-22T10:56:18.288Z,996.9
2023-05-22T10:57:33.544Z,996.9
2023-05-22T10:58:49.782Z,997
2023-05-22T11:00:06.020Z,996.9
2023-05-22T11:01:22.259Z,996.9
2023-05-22T11:02:38.510Z,996.9
2023-05-22T11:03:54.749Z,996.9
2023-05-22T11:05:10.998Z,996.9
2023-05-22T11:07:43.473Z,996.9
2023-05-22T11:08:59.703Z,996.9
2023-05-22T11:10:15.952Z,996.9
2023-05-22T11:11:32.195Z,996.9
2023-05-22T11:12:48.436Z,996.8
2023-05-22T11:15:19.927Z,996.9
2023-05-22T11:16:35.190Z,996.9
2023-05-22T11:17:51.423Z,996.9
2023-05-22T11:19:06.675Z,996.9
2023-05-22T11:20:22.922Z,996.8
2023-05-22T11:21:39.154Z,996.9
2023-05-22T11:22:55.421Z,996.9
2023-05-22T11:24:11.645Z,996.8
2023-05-22T11:25:27.879Z,996.8
2023-05-22T11:26:44.123Z,996.8
2023-05-22T11:28:00.365Z,996.8
2023-05-22T11:30:31.854Z,996.8
2023-05-22T11:31:47.116Z,996.8
2023-05-22T11:33:03.363Z,996.8
2023-05-22T11:34:19.595Z,996.7
2023-05-22T11:35:35.831Z,996.7
2023-05-22T11:38:08.324Z,996.7
2023-05-22T11:39:23.575Z,996.7
2023-05-22T11:40:38.839Z,996.7
2023-05-22T11:41:55.084Z,996.7
2023-05-22T11:43:11.327Z,996.5
2023-05-22T11:44:27.549Z,996.6
2023-05-22T11:45:43.793Z,996.6
2023-05-22T11:47:00.045Z,996.6
2023-05-22T11:48:16.269Z,996.7
2023-05-22T11:49:32.507Z,996.6
2023-05-22T11:50:48.751Z,996.7
2023-05-22T11:53:20.260Z,996.5
2023-05-22T11:54:35.516Z,996.6
2023-05-22T11:55:51.758Z,996.6
2023-05-22T11:57:07.985Z,996.5
2023-05-22T11:58:24.227Z,996.5
2023-05-22T11:59:40.475Z,996.6
2023-05-22T12:00:56.708Z,996.5
2023-05-22T12:02:12.951Z,996.5
2023-05-22T12:03:29.189Z,996.5
2023-05-22T12:04:45.428Z,996.4
2023-05-22T12:06:00.688Z,996.4
2023-05-22T12:07:15.963Z,996.4
2023-05-22T12:08:32.203Z,996.4
2023-05-22T12:09:48.433Z,996.4
2023-05-22T12:11:04.667Z,996.4
2023-05-22T12:12:20.914Z,996.5
2023-05-22T12:13:37.154Z,996.4
2023-05-22T12:14:53.386Z,996.4
2023-05-22T12:16:09.643Z,996.3
2023-05-22T12:17:25.881Z,996.4
2023-05-22T12:18:41.127Z,996.4
2023-05-22T12:19:56.392Z,996.4
2023-05-22T12:21:12.644Z,996.4
2023-05-22T12:22:28.874Z,996.3
2023-05-22T12:23:45.114Z,996.3
2023-05-22T12:25:01.350Z,996.3
2023-05-22T12:26:17.597Z,996.3
2023-05-22T12:27:33.825Z,996.3
2023-05-22T12:28:50.075Z,996.3
2023-05-22T12:30:06.305Z,996.3
2023-05-22T12:31:22.545Z,996.3
2023-05-22T12:32:38.791Z,996.3
2023-05-22T12:33:55.026Z,996.3
2023-05-22T12:35:11.270Z,996.3
2023-05-22T12:36:26.536Z,996.3
2023-05-22T12:37:42.765Z,996.2
2023-05-22T12:38:59.015Z,996.3
2023-05-22T12:40:15.252Z,996.3
2023-05-22T12:41:31.486Z,996.3
2023-05-22T12:42:47.743Z,996.2
2023-05-22T12:44:03.973Z,996.1
2023-05-22T12:46:36.456Z,996.2
2023-05-22T12:49:08.933Z,996.2
2023-05-22T12:50:25.163Z,996.2
2023-05-22T12:51:41.423Z,996.2
2023-05-22T12:52:56.674Z,996.1
2023-05-22T12:54:12.914Z,996.1
2023-05-22T12:55:29.160Z,996.1
2023-05-22T12:56:45.400Z,996.1
2023-05-22T12:58:01.626Z,996.2
2023-05-22T12:59:17.868Z,996.1
2023-05-22T13:00:34.117Z,996.1
2023-05-22T13:01:50.349Z,996.1
2023-05-22T13:03:06.583Z,996.1
2023-05-22T13:04:22.842Z,996
2023-05-22T13:05:39.081Z,996
2023-05-22T13:06:55.308Z,996
2023-05-22T13:09:27.800Z,996
2023-05-22T13:10:43.050Z,996
2023-05-22T13:11:58.320Z,996
2023-05-22T13:13:14.550Z,996
2023-05-22T13:14:30.794Z,995.9
2023-05-22T13:15:47.042Z,995.8
2023-05-22T13:17:03.269Z,995.9
2023-05-22T13:18:19.506Z,995.9
2023-05-22T13:19:35.746Z,995.9
2023-05-22T13:20:51.990Z,995.8
2023-05-22T13:22:08.226Z,995.9
2023-05-22T13:23:23.507Z,995.9
2023-05-22T13:24:38.756Z,995.8
2023-05-22T13:25:54.983Z,995.9
2023-05-22T13:27:11.235Z,995.9
2023-05-22T13:28:27.478Z,995.9
2023-05-22T13:29:43.000Z,995.8
2023-05-22T13:30:59.953Z,995.9
2023-05-22T13:32:16.195Z,995.9
2023-05-22T13:33:32.427Z,995.9
2023-05-22T13:34:48.677Z,995.8
2023-05-22T13:36:04.919Z,995.8
2023-05-22T13:37:21.158Z,995.8
2023-05-22T13:39:53.628Z,995.8
2023-05-22T13:42:25.141Z,995.7
2023-05-22T13:44:56.638Z,995.8
2023-05-22T13:46:11.901Z,995.8
2023-05-22T13:47:27.149Z,995.8
2023-05-22T13:48:43.381Z,995.8
2023-05-22T13:49:59.623Z,995.8
2023-05-22T13:51:15.859Z,995.8
2023-05-22T13:52:32.107Z,995.8
2023-05-22T13:53:48.352Z,995.8
2023-05-22T13:55:04.595Z,995.8
2023-05-22T13:56:20.835Z,995.8
2023-05-22T13:57:37.078Z,995.7
2023-05-22T13:58:52.333Z,995.6
2023-05-22T14:00:07.583Z,995.6
2023-05-22T14:01:23.823Z,995.7
2023-05-22T14:02:40.064Z,995.8
2023-05-22T14:03:56.306Z,995.7
2023-05-22T14:05:12.558Z,995.7
2023-05-22T14:06:28.799Z,995.6
2023-05-22T14:07:45.031Z,995.6
2023-05-22T14:09:01.270Z,995.7
2023-05-22T14:10:17.515Z,995.7
2023-05-22T14:11:33.748Z,995.6
2023-05-22T14:12:49.984Z,995.6
2023-05-22T14:14:06.225Z,995.5
2023-05-22T14:15:22.476Z,995.6
2023-05-22T14:16:37.725Z,995.5
2023-05-22T14:17:53.965Z,995.6
2023-05-22T14:19:10.202Z,995.5
2023-05-22T14:20:26.455Z,995.5
2023-05-22T14:21:42.686Z,995.5
2023-05-22T14:22:58.918Z,995.5
2023-05-22T14:24:15.171Z,995.5
2023-05-22T14:25:31.394Z,995.5
2023-05-22T14:26:47.648Z,995.5
2023-05-22T14:28:03.876Z,995.5
2023-05-22T14:29:20.122Z,995.4
2023-05-22T14:30:36.363Z,995.4
2023-05-22T14:31:52.606Z,995.3
2023-05-22T14:33:08.972Z,995.3
2023-05-22T14:34:25.196Z,995.4
2023-05-22T14:35:41.455Z,995.3
2023-05-22T14:36:57.687Z,995.3
2023-05-22T14:38:13.927Z,995.3
2023-05-22T14:39:30.158Z,995.3
2023-05-22T14:40:46.406Z,995.3
2023-05-22T14:42:02.650Z,995.2
2023-05-22T14:43:18.891Z,995.2
2023-05-22T14:44:35.134Z,995.3
2023-05-22T14:45:51.362Z,995.3
2023-05-22T14:47:07.595Z,995.2
2023-05-22T14:48:23.847Z,995.2
2023-05-22T14:49:39.109Z,995.2
2023-05-22T14:50:55.343Z,995.1
2023-05-22T14:52:11.591Z,995.1
2023-05-22T14:53:27.816Z,995.2
2023-05-22T14:54:44.064Z,995.1
2023-05-22T14:56:00.297Z,995.1
2023-05-22T14:57:16.539Z,995.1
2023-05-22T14:58:32.778Z,995.1
2023-05-22T14:59:49.028Z,995
2023-05-22T15:01:05.252Z,995.1
2023-05-22T15:02:21.506Z,995
2023-05-22T15:03:37.744Z,995
2023-05-22T15:04:53.986Z,995
2023-05-22T15:06:09.237Z,995
2023-05-22T15:07:25.482Z,995
2023-05-22T15:08:41.723Z,995
2023-05-22T15:09:57.945Z,995
2023-05-22T15:11:14.200Z,995
2023-05-22T15:12:29.461Z,995
2023-05-22T15:13:45.701Z,994.9
2023-05-22T15:15:01.943Z,995
2023-05-22T15:16:18.171Z,994.9
2023-05-22T15:17:34.418Z,994.9
2023-05-22T15:18:50.665Z,994.9
2023-05-22T15:21:23.142Z,994.9
2023-05-22T15:22:39.386Z,994.9
2023-05-22T15:23:55.611Z,994.9
2023-05-22T15:25:11.861Z,994.9
2023-05-22T15:26:28.101Z,994.8
2023-05-22T15:27:44.326Z,994.9
2023-05-22T15:29:00.574Z,995
2023-05-22T15:30:15.825Z,994.8
2023-05-22T15:31:32.068Z,994.9
2023-05-22T15:34:04.542Z,994.7
2023-05-22T15:36:37.041Z,994.8
2023-05-22T15:37:52.286Z,994.8
2023-05-22T15:39:07.550Z,994.8
2023-05-22T15:40:23.780Z,994.8
2023-05-22T15:41:40.027Z,994.7
2023-05-22T15:42:56.276Z,994.7
2023-05-22T15:44:12.503Z,994.8
2023-05-22T15:45:28.757Z,994.8
2023-05-22T15:46:44.989Z,994.7
2023-05-22T15:49:17.477Z,994.7
2023-05-22T15:50:33.717Z,994.7
2023-05-22T15:51:49.939Z,994.6
2023-05-22T15:53:06.192Z,994.6
2023-05-22T15:54:22.424Z,994.6
2023-05-22T15:55:37.682Z,994.5
2023-05-22T15:56:53.932Z,994.6
2023-05-22T15:58:10.170Z,994.6
2023-05-22T16:00:42.649Z,994.6
2023-05-22T16:01:57.913Z,994.6
2023-05-22T16:03:13.172Z,994.6
2023-05-22T16:04:29.411Z,994.6
2023-05-22T16:07:01.890Z,994.6
2023-05-22T16:08:18.123Z,994.6
2023-05-22T16:09:34.355Z,994.6
2023-05-22T16:10:50.591Z,994.6
2023-05-22T16:12:06.844Z,994.6
2023-05-22T16:13:23.072Z,994.7
2023-05-22T16:14:39.342Z,994.7
2023-05-22T16:15:55.553Z,994.6
2023-05-22T16:17:11.808Z,994.7
2023-05-22T16:19:44.273Z,994.6
2023-05-22T16:20:59.536Z,994.7
2023-05-22T16:22:15.777Z,994.8
2023-05-22T16:23:32.016Z,994.7
2023-05-22T16:24:48.256Z,994.6
2023-05-22T16:26:04.502Z,994.7
2023-05-22T16:27:20.748Z,994.7
2023-05-22T16:28:36.974Z,994.7
2023-05-22T16:29:53.213Z,994.7
2023-05-22T16:31:09.448Z,994.7
2023-05-22T16:32:25.698Z,994.7
2023-05-22T16:33:40.951Z,994.7
2023-05-22T16:34:56.206Z,994.7
2023-05-22T16:36:12.457Z,994.7
2023-05-22T16:37:28.703Z,994.7
2023-05-22T16:38:44.929Z,994.7
2023-05-22T16:40:01.182Z,994.7
2023-05-22T16:41:17.424Z,994.6
2023-05-22T16:42:33.667Z,994.7
2023-05-22T16:43:49.890Z,994.7
2023-05-22T16:45:06.136Z,994.7
2023-05-22T16:46:21.395Z,994.6
2023-05-22T16:47:36.646Z,994.6
2023-05-22T16:50:09.137Z,994.7
2023-05-22T16:51:25.382Z,994.6
2023-05-22T16:52:41.616Z,994.6
2023-05-22T16:53:57.864Z,994.5
2023-05-22T16:55:14.102Z,994.5
2023-05-22T16:56:30.345Z,994.5
2023-05-22T16:57:46.577Z,994.6
2023-05-22T16:59:02.817Z,994.6
2023-05-22T17:00:19.048Z,994.5
2023-05-22T17:01:35.288Z,994.5
2023-05-22T17:02:51.540Z,994.6
2023-05-22T17:04:06.783Z,994.5
2023-05-22T17:05:23.025Z,994.6
2023-05-22T17:06:39.280Z,994.5
2023-05-22T17:07:55.521Z,994.5
2023-05-22T17:09:11.745Z,994.6
2023-05-22T17:10:27.993Z,994.6
2023-05-22T17:11:44.229Z,994.5
2023-05-22T17:13:00.479Z,994.5
2023-05-22T17:14:16.710Z,994.5
2023-05-22T17:15:32.951Z,994.5
2023-05-22T17:16:49.197Z,994.5
2023-05-22T17:18:05.425Z,994.6
2023-05-22T17:19:21.687Z,994.6
2023-05-22T17:20:36.928Z,994.6
2023-05-22T17:21:53.165Z,994.7
2023-05-22T17:23:09.421Z,994.6
2023-05-22T17:24:25.641Z,994.6
2023-05-22T17:25:41.888Z,994.6